sensor_id;sensor_type;location;lat;lon;timestamp;temperature;humidity
40289;DHT22;28991;52.028;5.526;2023-07-09T00:02:25;24.50;52.10
40289;DHT22;28991;52.028;5.526;2023-07-09T00:04:51;24.50;52.10
40289;DHT22;28991;52.028;5.526;2023-07-09T00:07:30;24.50;52.10
40289;DHT22;28991;52.028;5.526;2023-07-09T00:09:57;24.50;52.10
40289;DHT22;28991;52.028;5.526;2023-07-09T00:12:23;24.50;52.10
40289;DHT22;28991;52.028;5.526;2023-07-09T00:14:49;24.50;52.10
40289;DHT22;28991;52.028;5.526;2023-07-09T00:17:23;24.50;52.10
40289;DHT22;28991;52.028;5.526;2023-07-09T00:19:51;24.50;52.20
40289;DHT22;28991;52.028;5.526;2023-07-09T00:22:19;24.50;52.10
40289;DHT22;28991;52.028;5.526;2023-07-09T00:24:49;24.50;52.20
40289;DHT22;28991;52.028;5.526;2023-07-09T00:27:17;24.50;52.20
40289;DHT22;28991;52.028;5.526;2023-07-09T00:29:44;24.50;52.20
40289;DHT22;28991;52.028;5.526;2023-07-09T00:32:14;24.50;52.20
40289;DHT22;28991;52.028;5.526;2023-07-09T00:34:44;24.50;52.30
40289;DHT22;28991;52.028;5.526;2023-07-09T00:37:15;24.50;52.20
40289;DHT22;28991;52.028;5.526;2023-07-09T00:39:43;24.50;52.20
40289;DHT22;28991;52.028;5.526;2023-07-09T00:42:17;24.50;52.20
40289;DHT22;28991;52.028;5.526;2023-07-09T00:44:49;24.50;52.20
40289;DHT22;28991;52.028;5.526;2023-07-09T00:47:28;24.50;52.20
40289;DHT22;28991;52.028;5.526;2023-07-09T00:50:06;24.50;52.30
40289;DHT22;28991;52.028;5.526;2023-07-09T00:52:57;24.50;52.30
40289;DHT22;28991;52.028;5.526;2023-07-09T00:55:26;24.40;52.20
40289;DHT22;28991;52.028;5.526;2023-07-09T00:57:58;24.50;52.30
40289;DHT22;28991;52.028;5.526;2023-07-09T01:00:43;24.50;52.30
40289;DHT22;28991;52.028;5.526;2023-07-09T01:05:51;24.40;52.20
40289;DHT22;28991;52.028;5.526;2023-07-09T01:08:20;24.50;52.30
40289;DHT22;28991;52.028;5.526;2023-07-09T01:10:46;24.50;52.30
40289;DHT22;28991;52.028;5.526;2023-07-09T01:13:12;24.50;52.30
40289;DHT22;28991;52.028;5.526;2023-07-09T01:15:39;24.50;52.30
40289;DHT22;28991;52.028;5.526;2023-07-09T01:18:05;24.50;52.30
40289;DHT22;28991;52.028;5.526;2023-07-09T01:20:31;24.40;52.30
40289;DHT22;28991;52.028;5.526;2023-07-09T01:22:56;24.40;52.30
40289;DHT22;28991;52.028;5.526;2023-07-09T01:25:23;24.40;52.30
40289;DHT22;28991;52.028;5.526;2023-07-09T01:27:49;24.40;52.30
40289;DHT22;28991;52.028;5.526;2023-07-09T01:30:19;24.50;52.30
40289;DHT22;28991;52.028;5.526;2023-07-09T01:32:50;24.40;52.30
40289;DHT22;28991;52.028;5.526;2023-07-09T01:35:17;24.40;52.30
40289;DHT22;28991;52.028;5.526;2023-07-09T01:37:44;24.40;52.30
40289;DHT22;28991;52.028;5.526;2023-07-09T01:40:12;24.40;52.30
40289;DHT22;28991;52.028;5.526;2023-07-09T01:42:38;24.40;52.30
40289;DHT22;28991;52.028;5.526;2023-07-09T01:45:05;24.40;52.40
40289;DHT22;28991;52.028;5.526;2023-07-09T01:47:31;24.40;52.30
40289;DHT22;28991;52.028;5.526;2023-07-09T01:49:57;24.40;52.30
40289;DHT22;28991;52.028;5.526;2023-07-09T01:52:29;24.40;52.40
40289;DHT22;28991;52.028;5.526;2023-07-09T01:54:54;24.40;52.40
40289;DHT22;28991;52.028;5.526;2023-07-09T01:59:53;24.40;52.40
40289;DHT22;28991;52.028;5.526;2023-07-09T02:02:22;24.40;52.40
40289;DHT22;28991;52.028;5.526;2023-07-09T02:04:54;24.40;52.40
40289;DHT22;28991;52.028;5.526;2023-07-09T02:07:21;24.40;52.40
40289;DHT22;28991;52.028;5.526;2023-07-09T02:09:47;24.40;52.30
40289;DHT22;28991;52.028;5.526;2023-07-09T02:12:15;24.40;52.40
40289;DHT22;28991;52.028;5.526;2023-07-09T02:14:42;24.40;52.40
40289;DHT22;28991;52.028;5.526;2023-07-09T02:17:08;24.40;52.40
40289;DHT22;28991;52.028;5.526;2023-07-09T02:19:34;24.40;52.40
40289;DHT22;28991;52.028;5.526;2023-07-09T02:22:00;24.40;52.40
40289;DHT22;28991;52.028;5.526;2023-07-09T02:24:25;24.40;52.40
40289;DHT22;28991;52.028;5.526;2023-07-09T02:26:57;24.40;52.30
40289;DHT22;28991;52.028;5.526;2023-07-09T02:29:23;24.40;52.40
40289;DHT22;28991;52.028;5.526;2023-07-09T02:31:51;24.40;52.40
40289;DHT22;28991;52.028;5.526;2023-07-09T02:34:17;24.40;52.40
40289;DHT22;28991;52.028;5.526;2023-07-09T02:36:44;24.40;52.40
40289;DHT22;28991;52.028;5.526;2023-07-09T02:39:10;24.40;52.40
40289;DHT22;28991;52.028;5.526;2023-07-09T02:41:37;24.40;52.40
40289;DHT22;28991;52.028;5.526;2023-07-09T02:44:03;24.40;52.40
40289;DHT22;28991;52.028;5.526;2023-07-09T02:46:29;24.30;52.40
40289;DHT22;28991;52.028;5.526;2023-07-09T02:48:55;24.40;52.40
40289;DHT22;28991;52.028;5.526;2023-07-09T02:51:20;24.40;52.40
40289;DHT22;28991;52.028;5.526;2023-07-09T02:53:47;24.30;52.30
40289;DHT22;28991;52.028;5.526;2023-07-09T02:56:13;24.40;52.40
40289;DHT22;28991;52.028;5.526;2023-07-09T02:58:38;24.20;52.40
40289;DHT22;28991;52.028;5.526;2023-07-09T03:01:04;24.40;52.40
40289;DHT22;28991;52.028;5.526;2023-07-09T03:03:30;24.40;52.40
40289;DHT22;28991;52.028;5.526;2023-07-09T03:05:56;24.30;52.40
40289;DHT22;28991;52.028;5.526;2023-07-09T03:08:22;24.40;52.40
40289;DHT22;28991;52.028;5.526;2023-07-09T03:10:47;24.20;52.30
40289;DHT22;28991;52.028;5.526;2023-07-09T03:13:13;24.40;52.40
40289;DHT22;28991;52.028;5.526;2023-07-09T03:15:38;24.40;52.40
40289;DHT22;28991;52.028;5.526;2023-07-09T03:18:04;24.40;52.50
40289;DHT22;28991;52.028;5.526;2023-07-09T03:20:30;24.30;52.40
40289;DHT22;28991;52.028;5.526;2023-07-09T03:22:55;24.30;52.40
40289;DHT22;28991;52.028;5.526;2023-07-09T03:25:21;24.40;52.50
40289;DHT22;28991;52.028;5.526;2023-07-09T03:27:49;24.30;52.40
40289;DHT22;28991;52.028;5.526;2023-07-09T03:30:15;24.30;52.40
40289;DHT22;28991;52.028;5.526;2023-07-09T03:32:42;24.30;52.40
40289;DHT22;28991;52.028;5.526;2023-07-09T03:35:07;24.30;52.40
40289;DHT22;28991;52.028;5.526;2023-07-09T03:37:33;24.30;52.50
40289;DHT22;28991;52.028;5.526;2023-07-09T03:39:59;24.30;52.40
40289;DHT22;28991;52.028;5.526;2023-07-09T03:42:25;24.30;52.40
40289;DHT22;28991;52.028;5.526;2023-07-09T03:44:51;24.30;52.40
40289;DHT22;28991;52.028;5.526;2023-07-09T03:47:16;24.40;52.50
40289;DHT22;28991;52.028;5.526;2023-07-09T03:49:43;24.30;52.50
40289;DHT22;28991;52.028;5.526;2023-07-09T03:52:09;24.30;52.40
40289;DHT22;28991;52.028;5.526;2023-07-09T03:54:34;24.30;52.50
40289;DHT22;28991;52.028;5.526;2023-07-09T03:57:00;24.30;52.50
40289;DHT22;28991;52.028;5.526;2023-07-09T03:59:26;24.30;52.40
40289;DHT22;28991;52.028;5.526;2023-07-09T04:01:51;24.30;52.40
40289;DHT22;28991;52.028;5.526;2023-07-09T04:04:17;24.30;52.40
40289;DHT22;28991;52.028;5.526;2023-07-09T04:06:48;24.30;52.50
40289;DHT22;28991;52.028;5.526;2023-07-09T04:09:14;24.30;52.50
40289;DHT22;28991;52.028;5.526;2023-07-09T04:11:39;24.30;52.50
40289;DHT22;28991;52.028;5.526;2023-07-09T04:14:05;24.30;52.40
40289;DHT22;28991;52.028;5.526;2023-07-09T04:16:32;24.30;52.40
40289;DHT22;28991;52.028;5.526;2023-07-09T04:18:58;24.30;52.40
40289;DHT22;28991;52.028;5.526;2023-07-09T04:21:23;24.30;52.40
40289;DHT22;28991;52.028;5.526;2023-07-09T04:23:49;24.30;52.50
40289;DHT22;28991;52.028;5.526;2023-07-09T04:26:14;24.30;52.40
40289;DHT22;28991;52.028;5.526;2023-07-09T04:28:40;24.30;52.50
40289;DHT22;28991;52.028;5.526;2023-07-09T04:31:06;24.30;52.50
40289;DHT22;28991;52.028;5.526;2023-07-09T04:33:31;24.30;52.40
40289;DHT22;28991;52.028;5.526;2023-07-09T04:35:57;24.30;52.50
40289;DHT22;28991;52.028;5.526;2023-07-09T04:38:23;24.30;52.40
40289;DHT22;28991;52.028;5.526;2023-07-09T04:40:49;24.30;52.40
40289;DHT22;28991;52.028;5.526;2023-07-09T04:43:14;24.40;52.50
40289;DHT22;28991;52.028;5.526;2023-07-09T04:45:40;24.40;52.50
40289;DHT22;28991;52.028;5.526;2023-07-09T04:48:06;24.30;52.40
40289;DHT22;28991;52.028;5.526;2023-07-09T04:50:31;24.30;52.40
40289;DHT22;28991;52.028;5.526;2023-07-09T04:52:58;24.30;52.40
40289;DHT22;28991;52.028;5.526;2023-07-09T04:55:24;24.40;52.40
40289;DHT22;28991;52.028;5.526;2023-07-09T04:57:52;24.30;52.40
40289;DHT22;28991;52.028;5.526;2023-07-09T05:00:18;24.40;52.40
40289;DHT22;28991;52.028;5.526;2023-07-09T05:02:44;24.40;52.40
40289;DHT22;28991;52.028;5.526;2023-07-09T05:05:09;24.30;52.40
40289;DHT22;28991;52.028;5.526;2023-07-09T05:07:37;24.40;52.40
40289;DHT22;28991;52.028;5.526;2023-07-09T05:10:03;24.40;52.40
40289;DHT22;28991;52.028;5.526;2023-07-09T05:12:28;24.40;52.40
40289;DHT22;28991;52.028;5.526;2023-07-09T05:14:55;24.40;52.40
40289;DHT22;28991;52.028;5.526;2023-07-09T05:17:22;24.50;52.40
40289;DHT22;28991;52.028;5.526;2023-07-09T05:19:49;24.40;52.30
40289;DHT22;28991;52.028;5.526;2023-07-09T05:22:15;24.40;52.30
40289;DHT22;28991;52.028;5.526;2023-07-09T05:24:40;24.40;52.30
40289;DHT22;28991;52.028;5.526;2023-07-09T05:27:06;24.60;52.30
40289;DHT22;28991;52.028;5.526;2023-07-09T05:29:32;24.40;52.20
40289;DHT22;28991;52.028;5.526;2023-07-09T05:31:57;24.40;52.20
40289;DHT22;28991;52.028;5.526;2023-07-09T05:34:23;24.50;52.20
40289;DHT22;28991;52.028;5.526;2023-07-09T05:36:49;24.40;52.10
40289;DHT22;28991;52.028;5.526;2023-07-09T05:39:14;24.50;52.20
40289;DHT22;28991;52.028;5.526;2023-07-09T05:41:41;24.50;52.20
40289;DHT22;28991;52.028;5.526;2023-07-09T05:44:07;24.40;52.10
40289;DHT22;28991;52.028;5.526;2023-07-09T05:46:36;24.40;52.10
40289;DHT22;28991;52.028;5.526;2023-07-09T05:49:03;24.60;52.20
40289;DHT22;28991;52.028;5.526;2023-07-09T05:51:29;24.50;52.20
40289;DHT22;28991;52.028;5.526;2023-07-09T05:53:54;24.40;52.10
40289;DHT22;28991;52.028;5.526;2023-07-09T05:56:20;24.50;52.20
40289;DHT22;28991;52.028;5.526;2023-07-09T05:58:46;24.50;52.20
40289;DHT22;28991;52.028;5.526;2023-07-09T06:01:11;24.50;52.80
40289;DHT22;28991;52.028;5.526;2023-07-09T06:03:37;24.50;52.70
40289;DHT22;28991;52.028;5.526;2023-07-09T06:06:03;24.60;52.20
40289;DHT22;28991;52.028;5.526;2023-07-09T06:08:29;24.50;52.20
40289;DHT22;28991;52.028;5.526;2023-07-09T06:11:02;24.50;52.10
40289;DHT22;28991;52.028;5.526;2023-07-09T06:13:29;24.40;52.10
40289;DHT22;28991;52.028;5.526;2023-07-09T06:15:57;24.40;52.10
40289;DHT22;28991;52.028;5.526;2023-07-09T06:18:23;24.50;52.20
40289;DHT22;28991;52.028;5.526;2023-07-09T06:20:51;24.50;52.10
40289;DHT22;28991;52.028;5.526;2023-07-09T06:23:18;24.50;52.10
40289;DHT22;28991;52.028;5.526;2023-07-09T06:25:44;24.50;52.10
40289;DHT22;28991;52.028;5.526;2023-07-09T06:28:17;24.50;52.10
40289;DHT22;28991;52.028;5.526;2023-07-09T06:30:43;24.50;52.10
40289;DHT22;28991;52.028;5.526;2023-07-09T06:33:09;24.50;52.10
40289;DHT22;28991;52.028;5.526;2023-07-09T06:35:35;24.50;52.10
40289;DHT22;28991;52.028;5.526;2023-07-09T06:38:01;24.50;52.20
40289;DHT22;28991;52.028;5.526;2023-07-09T06:40:27;24.50;52.30
40289;DHT22;28991;52.028;5.526;2023-07-09T06:42:53;24.50;53.00
40289;DHT22;28991;52.028;5.526;2023-07-09T06:45:18;24.50;55.40
40289;DHT22;28991;52.028;5.526;2023-07-09T06:47:44;24.60;54.40
40289;DHT22;28991;52.028;5.526;2023-07-09T06:50:10;24.60;55.00
40289;DHT22;28991;52.028;5.526;2023-07-09T06:52:36;24.60;55.40
40289;DHT22;28991;52.028;5.526;2023-07-09T06:55:02;24.70;56.60
40289;DHT22;28991;52.028;5.526;2023-07-09T06:57:27;24.70;57.10
40289;DHT22;28991;52.028;5.526;2023-07-09T06:59:53;24.70;57.50
40289;DHT22;28991;52.028;5.526;2023-07-09T07:02:18;24.70;57.50
40289;DHT22;28991;52.028;5.526;2023-07-09T07:04:44;24.80;58.60
40289;DHT22;28991;52.028;5.526;2023-07-09T07:07:09;24.80;59.70
40289;DHT22;28991;52.028;5.526;2023-07-09T07:09:35;24.80;58.80
40289;DHT22;28991;52.028;5.526;2023-07-09T07:12:01;24.80;59.30
40289;DHT22;28991;52.028;5.526;2023-07-09T07:14:26;24.80;60.40
40289;DHT22;28991;52.028;5.526;2023-07-09T07:16:52;24.80;60.00
40289;DHT22;28991;52.028;5.526;2023-07-09T07:19:18;24.80;60.40
40289;DHT22;28991;52.028;5.526;2023-07-09T07:21:43;24.90;60.40
40289;DHT22;28991;52.028;5.526;2023-07-09T07:24:09;24.90;60.40
40289;DHT22;28991;52.028;5.526;2023-07-09T07:26:34;24.90;60.80
40289;DHT22;28991;52.028;5.526;2023-07-09T07:29:00;24.90;60.80
40289;DHT22;28991;52.028;5.526;2023-07-09T07:31:25;24.90;61.00
40289;DHT22;28991;52.028;5.526;2023-07-09T07:33:51;25.00;61.60
40289;DHT22;28991;52.028;5.526;2023-07-09T07:36:17;24.90;61.60
40289;DHT22;28991;52.028;5.526;2023-07-09T07:38:43;25.00;62.00
40289;DHT22;28991;52.028;5.526;2023-07-09T07:41:08;25.00;61.60
40289;DHT22;28991;52.028;5.526;2023-07-09T07:43:34;25.00;61.80
40289;DHT22;28991;52.028;5.526;2023-07-09T07:45:59;25.00;62.40
40289;DHT22;28991;52.028;5.526;2023-07-09T07:48:25;25.00;62.10
40289;DHT22;28991;52.028;5.526;2023-07-09T07:50:51;25.00;62.40
40289;DHT22;28991;52.028;5.526;2023-07-09T07:53:16;25.10;62.60
40289;DHT22;28991;52.028;5.526;2023-07-09T07:55:42;25.10;62.60
40289;DHT22;28991;52.028;5.526;2023-07-09T07:58:12;25.10;62.70
40289;DHT22;28991;52.028;5.526;2023-07-09T08:00:38;25.10;63.30
40289;DHT22;28991;52.028;5.526;2023-07-09T08:03:04;25.10;63.00
40289;DHT22;28991;52.028;5.526;2023-07-09T08:05:30;25.10;62.60
40289;DHT22;28991;52.028;5.526;2023-07-09T08:07:55;25.10;62.80
40289;DHT22;28991;52.028;5.526;2023-07-09T08:10:21;25.10;62.80
40289;DHT22;28991;52.028;5.526;2023-07-09T08:12:47;25.10;62.90
40289;DHT22;28991;52.028;5.526;2023-07-09T08:15:13;25.10;63.30
40289;DHT22;28991;52.028;5.526;2023-07-09T08:17:39;25.20;63.00
40289;DHT22;28991;52.028;5.526;2023-07-09T08:20:05;25.20;62.90
40289;DHT22;28991;52.028;5.526;2023-07-09T08:22:31;25.20;63.10
40289;DHT22;28991;52.028;5.526;2023-07-09T08:24:56;25.20;63.20
40289;DHT22;28991;52.028;5.526;2023-07-09T08:27:22;25.20;63.50
40289;DHT22;28991;52.028;5.526;2023-07-09T08:29:48;25.30;64.40
40289;DHT22;28991;52.028;5.526;2023-07-09T08:32:14;25.30;63.80
40289;DHT22;28991;52.028;5.526;2023-07-09T08:34:40;25.20;63.10
40289;DHT22;28991;52.028;5.526;2023-07-09T08:37:08;25.20;63.20
40289;DHT22;28991;52.028;5.526;2023-07-09T08:39:33;25.30;63.50
40289;DHT22;28991;52.028;5.526;2023-07-09T08:42:06;25.20;63.20
40289;DHT22;28991;52.028;5.526;2023-07-09T08:49:55;25.30;63.70
40289;DHT22;28991;52.028;5.526;2023-07-09T08:54:52;25.30;63.10
40289;DHT22;28991;52.028;5.526;2023-07-09T08:57:44;25.30;64.00
40289;DHT22;28991;52.028;5.526;2023-07-09T09:00:18;25.30;63.50
40289;DHT22;28991;52.028;5.526;2023-07-09T09:03:13;25.30;63.30
40289;DHT22;28991;52.028;5.526;2023-07-09T09:05:43;25.30;63.50
40289;DHT22;28991;52.028;5.526;2023-07-09T09:08:29;25.40;64.10
40289;DHT22;28991;52.028;5.526;2023-07-09T09:11:20;25.40;64.10
40289;DHT22;28991;52.028;5.526;2023-07-09T09:13:49;25.40;63.50
40289;DHT22;28991;52.028;5.526;2023-07-09T09:16:30;25.40;63.90
40289;DHT22;28991;52.028;5.526;2023-07-09T09:18:59;25.40;63.40
40289;DHT22;28991;52.028;5.526;2023-07-09T09:21:34;25.40;63.70
40289;DHT22;28991;52.028;5.526;2023-07-09T09:24:33;25.40;63.50
40289;DHT22;28991;52.028;5.526;2023-07-09T09:27:00;25.50;63.40
40289;DHT22;28991;52.028;5.526;2023-07-09T09:29:26;25.50;63.90
40289;DHT22;28991;52.028;5.526;2023-07-09T09:31:55;25.50;63.30
40289;DHT22;28991;52.028;5.526;2023-07-09T09:34:24;25.50;64.20
40289;DHT22;28991;52.028;5.526;2023-07-09T09:36:51;25.50;63.90
40289;DHT22;28991;52.028;5.526;2023-07-09T09:39:17;25.50;63.40
40289;DHT22;28991;52.028;5.526;2023-07-09T09:41:44;25.50;63.80
40289;DHT22;28991;52.028;5.526;2023-07-09T09:44:24;25.50;63.40
40289;DHT22;28991;52.028;5.526;2023-07-09T09:46:51;25.60;63.50
40289;DHT22;28991;52.028;5.526;2023-07-09T09:49:17;25.60;63.40
40289;DHT22;28991;52.028;5.526;2023-07-09T09:51:45;25.50;62.90
40289;DHT22;28991;52.028;5.526;2023-07-09T09:54:17;25.60;63.70
40289;DHT22;28991;52.028;5.526;2023-07-09T09:56:44;25.60;63.40
40289;DHT22;28991;52.028;5.526;2023-07-09T09:59:18;25.60;63.00
40289;DHT22;28991;52.028;5.526;2023-07-09T10:01:45;25.60;62.90
40289;DHT22;28991;52.028;5.526;2023-07-09T10:04:17;25.60;62.80
40289;DHT22;28991;52.028;5.526;2023-07-09T10:07:38;25.60;63.10
40289;DHT22;28991;52.028;5.526;2023-07-09T10:09:50;25.60;63.10
40289;DHT22;28991;52.028;5.526;2023-07-09T10:12:39;25.60;62.50
40289;DHT22;28991;52.028;5.526;2023-07-09T10:26:45;25.70;62.20
40289;DHT22;28991;52.028;5.526;2023-07-09T10:29:41;25.70;62.10
40289;DHT22;28991;52.028;5.526;2023-07-09T10:35:04;25.80;62.10
40289;DHT22;28991;52.028;5.526;2023-07-09T10:37:53;25.70;61.80
40289;DHT22;28991;52.028;5.526;2023-07-09T10:40:30;25.80;61.80
40289;DHT22;28991;52.028;5.526;2023-07-09T10:42:59;25.80;61.70
40289;DHT22;28991;52.028;5.526;2023-07-09T10:45:49;25.80;61.60
40289;DHT22;28991;52.028;5.526;2023-07-09T10:48:27;25.80;61.40
40289;DHT22;28991;52.028;5.526;2023-07-09T10:50:55;25.80;62.00
40289;DHT22;28991;52.028;5.526;2023-07-09T10:53:36;25.80;61.20
40289;DHT22;28991;52.028;5.526;2023-07-09T10:56:20;25.80;61.20
40289;DHT22;28991;52.028;5.526;2023-07-09T11:01:35;25.80;61.10
40289;DHT22;28991;52.028;5.526;2023-07-09T11:04:10;25.90;60.90
40289;DHT22;28991;52.028;5.526;2023-07-09T11:06:43;25.90;60.80
40289;DHT22;28991;52.028;5.526;2023-07-09T11:09:24;25.80;60.70
40289;DHT22;28991;52.028;5.526;2023-07-09T11:11:54;25.80;60.60
40289;DHT22;28991;52.028;5.526;2023-07-09T11:14:35;25.80;60.50
40289;DHT22;28991;52.028;5.526;2023-07-09T11:17:02;25.80;60.30
40289;DHT22;28991;52.028;5.526;2023-07-09T11:19:28;25.80;60.30
40289;DHT22;28991;52.028;5.526;2023-07-09T11:22:04;25.80;60.20
40289;DHT22;28991;52.028;5.526;2023-07-09T11:24:46;25.70;60.10
40289;DHT22;28991;52.028;5.526;2023-07-09T11:27:23;25.80;60.20
40289;DHT22;28991;52.028;5.526;2023-07-09T11:32:22;25.70;60.60
40289;DHT22;28991;52.028;5.526;2023-07-09T11:34:48;25.70;60.00
40289;DHT22;28991;52.028;5.526;2023-07-09T11:37:15;25.70;60.00
40289;DHT22;28991;52.028;5.526;2023-07-09T11:39:46;25.70;60.00
40289;DHT22;28991;52.028;5.526;2023-07-09T11:45:07;25.70;59.90
40289;DHT22;28991;52.028;5.526;2023-07-09T11:47:41;25.70;59.90
40289;DHT22;28991;52.028;5.526;2023-07-09T11:50:28;25.70;59.90
40289;DHT22;28991;52.028;5.526;2023-07-09T11:53:41;25.70;59.90
40289;DHT22;28991;52.028;5.526;2023-07-09T11:56:09;25.70;59.80
40289;DHT22;28991;52.028;5.526;2023-07-09T11:58:35;25.70;59.90
40289;DHT22;28991;52.028;5.526;2023-07-09T12:01:01;25.70;59.90
40289;DHT22;28991;52.028;5.526;2023-07-09T12:03:35;25.60;59.80
40289;DHT22;28991;52.028;5.526;2023-07-09T12:06:07;25.60;59.80
40289;DHT22;28991;52.028;5.526;2023-07-09T12:08:41;25.60;59.80
40289;DHT22;28991;52.028;5.526;2023-07-09T12:13:44;25.70;59.90
40289;DHT22;28991;52.028;5.526;2023-07-09T12:16:28;25.70;59.90
40289;DHT22;28991;52.028;5.526;2023-07-09T12:18:55;25.70;59.80
40289;DHT22;28991;52.028;5.526;2023-07-09T12:21:22;25.70;59.80
40289;DHT22;28991;52.028;5.526;2023-07-09T12:23:49;25.60;59.70
40289;DHT22;28991;52.028;5.526;2023-07-09T12:26:18;25.60;59.70
40289;DHT22;28991;52.028;5.526;2023-07-09T12:28:53;25.60;59.80
40289;DHT22;28991;52.028;5.526;2023-07-09T12:31:25;25.70;59.80
40289;DHT22;28991;52.028;5.526;2023-07-09T12:33:56;25.60;59.70
40289;DHT22;28991;52.028;5.526;2023-07-09T12:36:24;25.60;59.70
40289;DHT22;28991;52.028;5.526;2023-07-09T12:38:52;25.60;59.70
40289;DHT22;28991;52.028;5.526;2023-07-09T12:41:28;25.60;59.70
40289;DHT22;28991;52.028;5.526;2023-07-09T12:43:55;25.70;59.80
40289;DHT22;28991;52.028;5.526;2023-07-09T12:46:24;25.70;59.70
40289;DHT22;28991;52.028;5.526;2023-07-09T12:48:50;25.70;59.70
40289;DHT22;28991;52.028;5.526;2023-07-09T12:51:21;25.70;59.70
40289;DHT22;28991;52.028;5.526;2023-07-09T12:54:00;25.70;59.70
40289;DHT22;28991;52.028;5.526;2023-07-09T12:56:26;25.70;59.70
40289;DHT22;28991;52.028;5.526;2023-07-09T12:58:56;25.70;59.70
40289;DHT22;28991;52.028;5.526;2023-07-09T13:01:23;25.70;59.70
40289;DHT22;28991;52.028;5.526;2023-07-09T13:03:55;25.70;59.70
40289;DHT22;28991;52.028;5.526;2023-07-09T13:06:35;25.70;59.60
40289;DHT22;28991;52.028;5.526;2023-07-09T13:09:02;25.70;60.20
40289;DHT22;28991;52.028;5.526;2023-07-09T13:11:37;25.80;59.60
40289;DHT22;28991;52.028;5.526;2023-07-09T13:14:13;25.80;59.60
40289;DHT22;28991;52.028;5.526;2023-07-09T13:16:41;25.80;59.60
40289;DHT22;28991;52.028;5.526;2023-07-09T13:19:06;25.80;59.60
40289;DHT22;28991;52.028;5.526;2023-07-09T13:21:32;25.80;59.50
40289;DHT22;28991;52.028;5.526;2023-07-09T13:23:58;25.80;59.50
40289;DHT22;28991;52.028;5.526;2023-07-09T13:26:24;25.80;59.50
40289;DHT22;28991;52.028;5.526;2023-07-09T13:28:49;25.80;59.50
40289;DHT22;28991;52.028;5.526;2023-07-09T13:31:19;25.80;59.50
40289;DHT22;28991;52.028;5.526;2023-07-09T13:33:55;25.80;59.50
40289;DHT22;28991;52.028;5.526;2023-07-09T13:36:21;25.80;59.40
40289;DHT22;28991;52.028;5.526;2023-07-09T13:38:47;25.80;59.40
40289;DHT22;28991;52.028;5.526;2023-07-09T13:41:16;25.80;59.40
40289;DHT22;28991;52.028;5.526;2023-07-09T13:43:44;25.80;60.00
40289;DHT22;28991;52.028;5.526;2023-07-09T13:46:10;25.70;59.40
40289;DHT22;28991;52.028;5.526;2023-07-09T13:48:37;25.80;59.50
40289;DHT22;28991;52.028;5.526;2023-07-09T13:51:18;25.80;59.50
40289;DHT22;28991;52.028;5.526;2023-07-09T13:53:44;25.80;59.40
40289;DHT22;28991;52.028;5.526;2023-07-09T13:56:10;25.80;59.40
40289;DHT22;28991;52.028;5.526;2023-07-09T13:58:36;25.80;59.50
40289;DHT22;28991;52.028;5.526;2023-07-09T14:01:10;25.80;59.40
40289;DHT22;28991;52.028;5.526;2023-07-09T14:03:36;25.80;59.40
40289;DHT22;28991;52.028;5.526;2023-07-09T14:06:02;25.80;59.40
40289;DHT22;28991;52.028;5.526;2023-07-09T14:08:28;25.80;59.40
40289;DHT22;28991;52.028;5.526;2023-07-09T14:10:54;25.80;59.40
40289;DHT22;28991;52.028;5.526;2023-07-09T14:13:23;25.80;59.40
40289;DHT22;28991;52.028;5.526;2023-07-09T14:15:49;25.80;59.40
40289;DHT22;28991;52.028;5.526;2023-07-09T14:18:20;25.80;59.50
40289;DHT22;28991;52.028;5.526;2023-07-09T14:20:46;25.80;59.40
40289;DHT22;28991;52.028;5.526;2023-07-09T14:23:13;25.80;59.40
40289;DHT22;28991;52.028;5.526;2023-07-09T14:25:39;25.80;59.50
40289;DHT22;28991;52.028;5.526;2023-07-09T14:28:10;25.80;59.40
40289;DHT22;28991;52.028;5.526;2023-07-09T14:30:37;25.80;59.50
40289;DHT22;28991;52.028;5.526;2023-07-09T14:33:03;25.80;59.50
40289;DHT22;28991;52.028;5.526;2023-07-09T14:35:30;25.80;59.50
40289;DHT22;28991;52.028;5.526;2023-07-09T14:37:55;25.80;59.50
40289;DHT22;28991;52.028;5.526;2023-07-09T14:40:24;25.80;59.50
40289;DHT22;28991;52.028;5.526;2023-07-09T14:42:50;25.80;59.50
40289;DHT22;28991;52.028;5.526;2023-07-09T14:45:17;25.70;59.50
40289;DHT22;28991;52.028;5.526;2023-07-09T14:47:43;25.80;59.60
40289;DHT22;28991;52.028;5.526;2023-07-09T14:50:09;25.70;59.50
40289;DHT22;28991;52.028;5.526;2023-07-09T14:52:35;25.70;59.50
40289;DHT22;28991;52.028;5.526;2023-07-09T14:55:02;25.70;59.60
40289;DHT22;28991;52.028;5.526;2023-07-09T14:57:27;25.70;59.60
40289;DHT22;28991;52.028;5.526;2023-07-09T14:59:56;25.70;59.70
40289;DHT22;28991;52.028;5.526;2023-07-09T15:02:39;25.70;59.70
40289;DHT22;28991;52.028;5.526;2023-07-09T15:05:11;25.70;59.80
40289;DHT22;28991;52.028;5.526;2023-07-09T15:07:37;25.70;59.80
40289;DHT22;28991;52.028;5.526;2023-07-09T15:10:03;25.60;59.70
40289;DHT22;28991;52.028;5.526;2023-07-09T15:12:34;25.70;59.70
40289;DHT22;28991;52.028;5.526;2023-07-09T15:17:38;25.70;59.60
40289;DHT22;28991;52.028;5.526;2023-07-09T15:20:04;25.70;59.60
40289;DHT22;28991;52.028;5.526;2023-07-09T15:22:34;25.70;59.60
40289;DHT22;28991;52.028;5.526;2023-07-09T15:25:00;25.60;59.60
40289;DHT22;28991;52.028;5.526;2023-07-09T15:27:27;25.70;59.60
40289;DHT22;28991;52.028;5.526;2023-07-09T15:29:53;25.60;59.60
40289;DHT22;28991;52.028;5.526;2023-07-09T15:32:19;25.70;59.70
40289;DHT22;28991;52.028;5.526;2023-07-09T15:34:44;25.70;59.60
40289;DHT22;28991;52.028;5.526;2023-07-09T15:37:16;25.60;59.50
40289;DHT22;28991;52.028;5.526;2023-07-09T15:39:42;25.60;59.50
40289;DHT22;28991;52.028;5.526;2023-07-09T15:42:14;25.60;59.50
40289;DHT22;28991;52.028;5.526;2023-07-09T15:44:40;25.60;59.50
40289;DHT22;28991;52.028;5.526;2023-07-09T15:47:17;25.60;59.50
40289;DHT22;28991;52.028;5.526;2023-07-09T15:49:44;25.60;60.10
40289;DHT22;28991;52.028;5.526;2023-07-09T15:52:10;25.60;59.50
40289;DHT22;28991;52.028;5.526;2023-07-09T15:54:36;25.60;59.50
40289;DHT22;28991;52.028;5.526;2023-07-09T15:57:01;25.60;59.50
40289;DHT22;28991;52.028;5.526;2023-07-09T15:59:33;25.60;59.50
40289;DHT22;28991;52.028;5.526;2023-07-09T16:02:01;25.60;59.50
40289;DHT22;28991;52.028;5.526;2023-07-09T16:04:28;25.60;59.50
40289;DHT22;28991;52.028;5.526;2023-07-09T16:06:53;25.60;59.50
40289;DHT22;28991;52.028;5.526;2023-07-09T16:09:20;25.60;59.40
40289;DHT22;28991;52.028;5.526;2023-07-09T16:11:47;25.60;59.50
40289;DHT22;28991;52.028;5.526;2023-07-09T16:14:28;25.60;59.50
40289;DHT22;28991;52.028;5.526;2023-07-09T16:16:55;25.60;59.50
40289;DHT22;28991;52.028;5.526;2023-07-09T16:19:27;25.60;59.50
40289;DHT22;28991;52.028;5.526;2023-07-09T16:21:56;25.60;59.50